sensor_id;sensor_type;location;lat;lon;timestamp;pressure;altitude;pressure_sealevel;temperature;humidity
41573;BME280;27286;47.870;19.006;2023-02-01T00:01:26;99179.91;;;2.53;86.20
41573;BME280;27286;47.870;19.006;2023-02-01T00:03:51;99177.31;;;2.52;86.34
41573;BME280;27286;47.870;19.006;2023-02-01T00:06:17;99181.63;;;2.53;86.10
41573;BME280;27286;47.870;19.006;2023-02-01T00:08:42;99176.44;;;2.56;85.53
41573;BME280;27286;47.870;19.006;2023-02-01T00:11:10;99184.22;;;2.48;85.86
41573;BME280;27286;47.870;19.006;2023-02-01T00:13:37;99192.09;;;2.37;86.84
41573;BME280;27286;47.870;19.006;2023-02-01T00:18:30;99170.44;;;2.55;85.28
41573;BME280;27286;47.870;19.006;2023-02-01T00:20:55;99145.72;;;2.45;86.31
41573;BME280;27286;47.870;19.006;2023-02-01T00:23:20;99151.03;;;2.31;87.04
41573;BME280;27286;47.870;19.006;2023-02-01T00:25:46;99157.16;;;2.21;87.45
41573;BME280;27286;47.870;19.006;2023-02-01T00:28:11;99156.34;;;2.18;87.96
41573;BME280;27286;47.870;19.006;2023-02-01T00:30:38;99151.94;;;2.27;86.64
41573;BME280;27286;47.870;19.006;2023-02-01T00:33:03;99150.28;;;2.25;86.95
41573;BME280;27286;47.870;19.006;2023-02-01T00:35:29;99170.09;;;2.14;87.66
41573;BME280;27286;47.870;19.006;2023-02-01T00:37:54;99165.09;;;2.00;88.55
41573;BME280;27286;47.870;19.006;2023-02-01T00:40:20;99156.66;;;1.92;89.37
41573;BME280;27286;47.870;19.006;2023-02-01T00:42:45;99149.78;;;1.94;89.69
41573;BME280;27286;47.870;19.006;2023-02-01T00:45:11;99136.81;;;2.06;89.66
41573;BME280;27286;47.870;19.006;2023-02-01T00:47:36;99131.66;;;2.07;88.44
41573;BME280;27286;47.870;19.006;2023-02-01T00:50:02;99141.81;;;2.15;88.60
41573;BME280;27286;47.870;19.006;2023-02-01T00:52:27;99140.19;;;2.08;88.94
41573;BME280;27286;47.870;19.006;2023-02-01T00:54:53;99123.88;;;2.12;88.88
41573;BME280;27286;47.870;19.006;2023-02-01T00:57:18;99148.75;;;2.08;88.75
41573;BME280;27286;47.870;19.006;2023-02-01T00:59:44;99155.56;;;2.11;88.55
41573;BME280;27286;47.870;19.006;2023-02-01T01:02:09;99140.94;;;2.19;88.37
41573;BME280;27286;47.870;19.006;2023-02-01T01:04:35;99149.28;;;2.36;87.91
41573;BME280;27286;47.870;19.006;2023-02-01T01:07:01;99137.13;;;2.48;86.84
41573;BME280;27286;47.870;19.006;2023-02-01T01:09:26;99149.91;;;2.51;86.10
41573;BME280;27286;47.870;19.006;2023-02-01T01:11:52;99146.47;;;2.52;86.26
41573;BME280;27286;47.870;19.006;2023-02-01T01:14:17;99160.97;;;2.59;85.77
41573;BME280;27286;47.870;19.006;2023-02-01T01:16:43;99144.69;;;2.60;85.25
41573;BME280;27286;47.870;19.006;2023-02-01T01:19:08;99096.00;;;2.49;85.64
41573;BME280;27286;47.870;19.006;2023-02-01T01:21:34;99120.09;;;2.40;85.55
41573;BME280;27286;47.870;19.006;2023-02-01T01:23:59;99113.31;;;2.33;86.28
41573;BME280;27286;47.870;19.006;2023-02-01T01:26:27;99107.38;;;2.30;86.66
41573;BME280;27286;47.870;19.006;2023-02-01T01:28:55;99110.84;;;2.29;86.79
41573;BME280;27286;47.870;19.006;2023-02-01T01:31:21;99097.25;;;2.18;87.26
41573;BME280;27286;47.870;19.006;2023-02-01T01:33:52;99099.81;;;2.21;86.38
41573;BME280;27286;47.870;19.006;2023-02-01T01:36:18;99115.94;;;2.30;86.71
41573;BME280;27286;47.870;19.006;2023-02-01T01:38:44;99115.16;;;2.25;86.41
41573;BME280;27286;47.870;19.006;2023-02-01T01:41:14;99114.28;;;2.26;86.53
41573;BME280;27286;47.870;19.006;2023-02-01T01:43:56;99115.06;;;2.33;86.66
41573;BME280;27286;47.870;19.006;2023-02-01T01:46:27;99122.72;;;2.34;85.60
41573;BME280;27286;47.870;19.006;2023-02-01T01:49:17;99132.31;;;2.23;86.27
41573;BME280;27286;47.870;19.006;2023-02-01T01:51:49;99131.53;;;2.17;87.02
41573;BME280;27286;47.870;19.006;2023-02-01T01:54:27;99138.41;;;2.13;87.04
41573;BME280;27286;47.870;19.006;2023-02-01T01:56:57;99133.34;;;2.08;87.10
41573;BME280;27286;47.870;19.006;2023-02-01T01:59:24;99141.13;;;2.04;87.82
41573;BME280;27286;47.870;19.006;2023-02-01T02:01:51;99135.97;;;2.04;88.07
41573;BME280;27286;47.870;19.006;2023-02-01T02:04:18;99138.56;;;2.01;88.65
41573;BME280;27286;47.870;19.006;2023-02-01T02:09:20;99145.34;;;2.08;87.62
41573;BME280;27286;47.870;19.006;2023-02-01T02:11:46;99143.53;;;2.15;87.91
41573;BME280;27286;47.870;19.006;2023-02-01T02:14:13;99151.22;;;2.16;87.59
41573;BME280;27286;47.870;19.006;2023-02-01T02:19:48;99152.59;;;2.45;86.52
41573;BME280;27286;47.870;19.006;2023-02-01T02:31:28;99166.00;;;2.65;86.58
41573;BME280;27286;47.870;19.006;2023-02-01T02:39:08;99152.47;;;2.55;85.51
41573;BME280;27286;47.870;19.006;2023-02-01T02:41:50;99139.00;;;2.35;86.10
41573;BME280;27286;47.870;19.006;2023-02-01T02:44:49;99139.09;;;2.27;86.49
41573;BME280;27286;47.870;19.006;2023-02-01T02:47:52;99134.09;;;2.17;87.84
41573;BME280;27286;47.870;19.006;2023-02-01T02:50:27;99133.09;;;2.28;86.86
41573;BME280;27286;47.870;19.006;2023-02-01T02:53:23;99145.06;;;2.31;86.69
41573;BME280;27286;47.870;19.006;2023-02-01T02:56:11;99144.34;;;2.20;87.28
41573;BME280;27286;47.870;19.006;2023-02-01T02:58:58;99133.22;;;2.18;87.01
41573;BME280;27286;47.870;19.006;2023-02-01T03:01:43;99134.94;;;2.17;87.47
41573;BME280;27286;47.870;19.006;2023-02-01T03:04:27;99125.56;;;2.15;87.57
41573;BME280;27286;47.870;19.006;2023-02-01T03:06:53;99124.88;;;1.99;88.34
41573;BME280;27286;47.870;19.006;2023-02-01T03:09:24;99118.97;;;1.94;88.12
41573;BME280;27286;47.870;19.006;2023-02-01T03:12:00;99135.09;;;2.06;87.95
41573;BME280;27286;47.870;19.006;2023-02-01T03:14:47;99122.28;;;2.05;87.95
41573;BME280;27286;47.870;19.006;2023-02-01T03:17:19;99125.72;;;2.02;88.45
41573;BME280;27286;47.870;19.006;2023-02-01T03:19:48;99135.00;;;2.13;87.41
41573;BME280;27286;47.870;19.006;2023-02-01T03:22:20;99128.28;;;2.02;87.58
41573;BME280;27286;47.870;19.006;2023-02-01T03:32:36;99145.41;;;2.00;87.03
41573;BME280;27286;47.870;19.006;2023-02-01T03:35:28;99136.03;;;1.98;87.90
41573;BME280;27286;47.870;19.006;2023-02-01T03:38:00;99154.91;;;1.94;87.99
41573;BME280;27286;47.870;19.006;2023-02-01T03:40:27;99152.34;;;1.94;88.68
41573;BME280;27286;47.870;19.006;2023-02-01T03:42:59;99142.13;;;1.89;87.67
41573;BME280;27286;47.870;19.006;2023-02-01T03:45:40;99142.72;;;2.11;87.30
41573;BME280;27286;47.870;19.006;2023-02-01T03:48:08;99136.75;;;2.10;87.06
41573;BME280;27286;47.870;19.006;2023-02-01T03:50:38;99141.16;;;1.98;87.55
41573;BME280;27286;47.870;19.006;2023-02-01T03:53:08;99138.63;;;1.96;87.13
41573;BME280;27286;47.870;19.006;2023-02-01T03:55:36;99142.06;;;1.94;87.89
41573;BME280;27286;47.870;19.006;2023-02-01T03:58:13;99145.53;;;1.91;87.92
41573;BME280;27286;47.870;19.006;2023-02-01T04:00:39;99145.59;;;1.84;88.16
41573;BME280;27286;47.870;19.006;2023-02-01T04:03:06;99139.66;;;1.80;87.71
41573;BME280;27286;47.870;19.006;2023-02-01T04:05:32;99139.72;;;1.75;88.42
41573;BME280;27286;47.870;19.006;2023-02-01T04:07:58;99143.88;;;1.84;88.25
41573;BME280;27286;47.870;19.006;2023-02-01T04:10:24;99150.75;;;1.85;88.30
41573;BME280;27286;47.870;19.006;2023-02-01T04:12:50;99129.38;;;1.80;88.69
41573;BME280;27286;47.870;19.006;2023-02-01T04:15:15;99146.56;;;1.75;88.87
41573;BME280;27286;47.870;19.006;2023-02-01T04:17:40;99153.34;;;1.79;88.88
41573;BME280;27286;47.870;19.006;2023-02-01T04:20:06;99137.13;;;1.77;88.13
41573;BME280;27286;47.870;19.006;2023-02-01T04:22:32;99151.75;;;1.67;88.64
41573;BME280;27286;47.870;19.006;2023-02-01T04:24:57;99156.09;;;1.62;89.42
41573;BME280;27286;47.870;19.006;2023-02-01T04:27:23;99157.00;;;1.57;89.43
41573;BME280;27286;47.870;19.006;2023-02-01T04:29:48;99165.53;;;1.60;89.76
41573;BME280;27286;47.870;19.006;2023-02-01T04:32:17;99163.84;;;1.58;89.84
41573;BME280;27286;47.870;19.006;2023-02-01T04:34:42;99151.03;;;1.55;89.55
41573;BME280;27286;47.870;19.006;2023-02-01T04:37:08;99163.75;;;1.65;90.29
41573;BME280;27286;47.870;19.006;2023-02-01T04:39:33;99162.06;;;1.64;89.76
41573;BME280;27286;47.870;19.006;2023-02-01T04:41:59;99167.13;;;1.70;89.47
41573;BME280;27286;47.870;19.006;2023-02-01T04:44:24;99167.22;;;1.60;88.87
41573;BME280;27286;47.870;19.006;2023-02-01T04:46:50;99174.13;;;1.56;89.68
41573;BME280;27286;47.870;19.006;2023-02-01T04:49:15;99174.03;;;1.64;89.77
41573;BME280;27286;47.870;19.006;2023-02-01T04:51:41;99176.53;;;1.73;89.25
41573;BME280;27286;47.870;19.006;2023-02-01T04:54:07;99191.84;;;1.80;89.06
41573;BME280;27286;47.870;19.006;2023-02-01T04:56:34;99189.31;;;1.77;88.61
41573;BME280;27286;47.870;19.006;2023-02-01T04:59:02;99194.41;;;1.79;88.26
41573;BME280;27286;47.870;19.006;2023-02-01T05:01:28;99189.34;;;1.73;88.34
41573;BME280;27286;47.870;19.006;2023-02-01T05:03:53;99203.84;;;1.78;87.94
41573;BME280;27286;47.870;19.006;2023-02-01T05:06:20;99202.81;;;1.95;87.91
41573;BME280;27286;47.870;19.006;2023-02-01T05:08:45;99195.06;;;1.99;86.96
41573;BME280;27286;47.870;19.006;2023-02-01T05:11:11;99189.16;;;1.91;86.66
41573;BME280;27286;47.870;19.006;2023-02-01T05:13:56;99189.13;;;1.96;87.57
41573;BME280;27286;47.870;19.006;2023-02-01T05:16:21;99200.34;;;1.87;87.17
41573;BME280;27286;47.870;19.006;2023-02-01T05:18:47;99192.66;;;1.84;87.15
41573;BME280;27286;47.870;19.006;2023-02-01T05:21:12;99189.25;;;1.80;87.01
41573;BME280;27286;47.870;19.006;2023-02-01T05:23:38;99197.78;;;1.84;86.65
41573;BME280;27286;47.870;19.006;2023-02-01T05:26:24;99197.75;;;1.89;87.16
41573;BME280;27286;47.870;19.006;2023-02-01T05:28:49;99202.81;;;1.95;87.71
41573;BME280;27286;47.870;19.006;2023-02-01T05:31:15;99200.16;;;2.01;87.04
41573;BME280;27286;47.870;19.006;2023-02-01T05:33:40;99205.28;;;2.05;86.79
41573;BME280;27286;47.870;19.006;2023-02-01T05:36:06;99194.22;;;1.99;86.93
41573;BME280;27286;47.870;19.006;2023-02-01T05:38:32;99203.44;;;2.15;86.15
41573;BME280;27286;47.870;19.006;2023-02-01T05:40:57;99214.47;;;2.26;85.81
41573;BME280;27286;47.870;19.006;2023-02-01T05:43:23;99202.28;;;2.44;84.69
41573;BME280;27286;47.870;19.006;2023-02-01T05:45:48;99207.44;;;2.40;84.76
41573;BME280;27286;47.870;19.006;2023-02-01T05:48:14;99198.13;;;2.30;85.39
41573;BME280;27286;47.870;19.006;2023-02-01T05:50:39;99200.63;;;2.38;85.39
41573;BME280;27286;47.870;19.006;2023-02-01T05:53:04;99205.72;;;2.42;84.85
41573;BME280;27286;47.870;19.006;2023-02-01T05:55:30;99217.81;;;2.31;84.83
41573;BME280;27286;47.870;19.006;2023-02-01T05:57:55;99207.66;;;2.22;85.58
41573;BME280;27286;47.870;19.006;2023-02-01T06:00:21;99206.84;;;2.17;86.14
41573;BME280;27286;47.870;19.006;2023-02-01T06:02:47;99202.53;;;2.22;85.89
41573;BME280;27286;47.870;19.006;2023-02-01T06:05:12;99206.59;;;2.41;85.00
41573;BME280;27286;47.870;19.006;2023-02-01T06:07:38;99204.09;;;2.35;84.84
41573;BME280;27286;47.870;19.006;2023-02-01T06:10:03;99200.72;;;2.30;85.63
41573;BME280;27286;47.870;19.006;2023-02-01T06:12:29;99203.31;;;2.29;84.92
41573;BME280;27286;47.870;19.006;2023-02-01T06:14:55;99208.53;;;2.23;84.83
41573;BME280;27286;47.870;19.006;2023-02-01T06:17:20;99199.06;;;2.26;84.77
41573;BME280;27286;47.870;19.006;2023-02-01T06:19:46;99200.66;;;2.35;83.63
41573;BME280;27286;47.870;19.006;2023-02-01T06:22:13;99205.72;;;2.42;83.13
41573;BME280;27286;47.870;19.006;2023-02-01T06:24:39;99210.84;;;2.42;83.31
41573;BME280;27286;47.870;19.006;2023-02-01T06:27:06;99222.16;;;2.28;84.57
41573;BME280;27286;47.870;19.006;2023-02-01T06:29:32;99211.94;;;2.23;84.30
41573;BME280;27286;47.870;19.006;2023-02-01T06:31:58;99209.22;;;2.35;84.30
41573;BME280;27286;47.870;19.006;2023-02-01T06:34:24;99217.69;;;2.44;83.68
41573;BME280;27286;47.870;19.006;2023-02-01T06:36:49;99227.06;;;2.46;84.06
41573;BME280;27286;47.870;19.006;2023-02-01T06:39:15;99215.13;;;2.42;84.94
41573;BME280;27286;47.870;19.006;2023-02-01T06:41:50;99219.31;;;2.51;84.18
41573;BME280;27286;47.870;19.006;2023-02-01T06:44:16;99207.31;;;2.53;84.31
41573;BME280;27286;47.870;19.006;2023-02-01T06:46:42;99210.72;;;2.53;84.09
41573;BME280;27286;47.870;19.006;2023-02-01T06:49:07;99196.25;;;2.46;84.35
41573;BME280;27286;47.870;19.006;2023-02-01T06:51:33;99214.88;;;2.62;83.73
41573;BME280;27286;47.870;19.006;2023-02-01T06:53:59;99214.09;;;2.57;84.26
41573;BME280;27286;47.870;19.006;2023-02-01T06:56:25;99222.56;;;2.65;83.73
41573;BME280;27286;47.870;19.006;2023-02-01T06:58:51;99212.22;;;2.71;83.22
41573;BME280;27286;47.870;19.006;2023-02-01T07:01:17;99209.66;;;2.71;84.10
41573;BME280;27286;47.870;19.006;2023-02-01T07:03:42;99204.28;;;2.85;82.90
41573;BME280;27286;47.870;19.006;2023-02-01T07:06:09;99211.88;;;2.95;83.19
41573;BME280;27286;47.870;19.006;2023-02-01T07:08:36;99204.91;;;3.04;82.80
41573;BME280;27286;47.870;19.006;2023-02-01T07:11:08;99213.28;;;3.16;81.98
41573;BME280;27286;47.870;19.006;2023-02-01T07:13:34;99208.66;;;3.38;80.71
41573;BME280;27286;47.870;19.006;2023-02-01T07:16:05;99217.84;;;3.54;79.80
41573;BME280;27286;47.870;19.006;2023-02-01T07:18:31;99218.44;;;3.69;78.94
41573;BME280;27286;47.870;19.006;2023-02-01T07:20:58;99213.97;;;3.80;78.78
41573;BME280;27286;47.870;19.006;2023-02-01T07:23:24;99224.06;;;3.92;77.96
41573;BME280;27286;47.870;19.006;2023-02-01T07:25:56;99223.94;;;3.98;77.61
41573;BME280;27286;47.870;19.006;2023-02-01T07:28:22;99235.06;;;4.00;77.77
41573;BME280;27286;47.870;19.006;2023-02-01T07:30:48;99216.44;;;3.84;77.87
41573;BME280;27286;47.870;19.006;2023-02-01T07:33:25;99225.03;;;3.86;78.08
41573;BME280;27286;47.870;19.006;2023-02-01T07:35:51;99225.13;;;3.80;78.27
41573;BME280;27286;47.870;19.006;2023-02-01T07:38:17;99231.13;;;3.81;78.96
41573;BME280;27286;47.870;19.006;2023-02-01T07:40:43;99239.75;;;3.78;78.75
41573;BME280;27286;47.870;19.006;2023-02-01T07:43:08;99247.41;;;3.81;78.77
41573;BME280;27286;47.870;19.006;2023-02-01T07:45:35;99249.31;;;4.21;77.53
41573;BME280;27286;47.870;19.006;2023-02-01T07:48:02;99246.34;;;4.82;74.98
41573;BME280;27286;47.870;19.006;2023-02-01T07:50:28;99235.97;;;5.61;71.91
41573;BME280;27286;47.870;19.006;2023-02-01T07:52:54;99241.50;;;6.78;67.95
41573;BME280;27286;47.870;19.006;2023-02-01T07:55:20;99223.34;;;9.10;58.78
41573;BME280;27286;47.870;19.006;2023-02-01T07:57:46;99224.78;;;11.19;52.00
41573;BME280;27286;47.870;19.006;2023-02-01T08:00:12;99215.91;;;12.78;45.87
41573;BME280;27286;47.870;19.006;2023-02-01T08:02:59;99218.72;;;12.74;45.23
41573;BME280;27286;47.870;19.006;2023-02-01T08:05:24;99221.69;;;12.34;45.70
41573;BME280;27286;47.870;19.006;2023-02-01T08:07:50;99223.94;;;12.58;45.07
41573;BME280;27286;47.870;19.006;2023-02-01T08:10:17;99232.34;;;14.19;41.45
41573;BME280;27286;47.870;19.006;2023-02-01T08:12:43;99240.19;;;14.19;40.29
41573;BME280;27286;47.870;19.006;2023-02-01T08:15:13;99249.09;;;13.87;41.25
41573;BME280;27286;47.870;19.006;2023-02-01T08:17:40;99238.63;;;15.57;37.96
41573;BME280;27286;47.870;19.006;2023-02-01T08:20:05;99251.38;;;15.22;38.20
41573;BME280;27286;47.870;19.006;2023-02-01T08:22:32;99256.66;;;15.49;38.04
41573;BME280;27286;47.870;19.006;2023-02-01T08:24:57;99267.63;;;16.35;36.12
41573;BME280;27286;47.870;19.006;2023-02-01T08:27:26;99262.38;;;16.99;35.37
41573;BME280;27286;47.870;19.006;2023-02-01T08:29:52;99265.69;;;17.26;33.95
41573;BME280;27286;47.870;19.006;2023-02-01T08:32:18;99262.28;;;16.49;34.42
41573;BME280;27286;47.870;19.006;2023-02-01T08:34:43;99262.03;;;17.16;34.37
41573;BME280;27286;47.870;19.006;2023-02-01T08:37:09;99273.31;;;18.02;32.56
41573;BME280;27286;47.870;19.006;2023-02-01T08:39:35;99266.91;;;18.75;31.67
41573;BME280;27286;47.870;19.006;2023-02-01T08:42:01;99257.91;;;18.20;32.07
41573;BME280;27286;47.870;19.006;2023-02-01T08:44:45;99260.59;;;18.31;32.44
41573;BME280;27286;47.870;19.006;2023-02-01T08:47:12;99253.59;;;18.88;31.56
41573;BME280;27286;47.870;19.006;2023-02-01T08:49:37;99258.78;;;18.43;30.48
41573;BME280;27286;47.870;19.006;2023-02-01T08:52:03;99259.34;;;18.24;32.03
41573;BME280;27286;47.870;19.006;2023-02-01T08:54:28;99254.75;;;15.10;36.76
41573;BME280;27286;47.870;19.006;2023-02-01T08:56:54;99276.91;;;12.27;41.92
41573;BME280;27286;47.870;19.006;2023-02-01T08:59:20;99295.22;;;10.59;46.06
41573;BME280;27286;47.870;19.006;2023-02-01T09:01:45;99285.75;;;9.30;49.87
41573;BME280;27286;47.870;19.006;2023-02-01T09:04:10;99282.97;;;8.64;53.29
41573;BME280;27286;47.870;19.006;2023-02-01T09:06:36;99284.91;;;7.81;57.08
41573;BME280;27286;47.870;19.006;2023-02-01T09:09:02;99296.88;;;7.31;59.02
41573;BME280;27286;47.870;19.006;2023-02-01T09:11:27;99292.91;;;6.90;60.78
41573;BME280;27286;47.870;19.006;2023-02-01T09:13:53;99289.47;;;6.58;62.83
41573;BME280;27286;47.870;19.006;2023-02-01T09:16:19;99292.38;;;6.14;65.09
41573;BME280;27286;47.870;19.006;2023-02-01T09:18:45;99294.72;;;5.87;67.74
41573;BME280;27286;47.870;19.006;2023-02-01T09:21:10;99293.50;;;5.66;69.30
41573;BME280;27286;47.870;19.006;2023-02-01T09:23:36;99287.81;;;5.52;70.38
41573;BME280;27286;47.870;19.006;2023-02-01T09:26:04;99289.63;;;5.49;71.46
41573;BME280;27286;47.870;19.006;2023-02-01T09:28:30;99283.13;;;5.68;72.62
41573;BME280;27286;47.870;19.006;2023-02-01T09:31:00;99274.19;;;8.68;61.96
41573;BME280;27286;47.870;19.006;2023-02-01T09:33:26;99269.50;;;11.47;54.86
41573;BME280;27286;47.870;19.006;2023-02-01T09:36:00;99256.09;;;12.58;50.13
41573;BME280;27286;47.870;19.006;2023-02-01T09:38:26;99263.69;;;11.40;52.38
41573;BME280;27286;47.870;19.006;2023-02-01T09:40:53;99261.09;;;11.40;51.50
41573;BME280;27286;47.870;19.006;2023-02-01T09:46:20;99269.66;;;8.50;59.87
41573;BME280;27286;47.870;19.006;2023-02-01T09:48:47;99259.06;;;8.05;61.33
41573;BME280;27286;47.870;19.006;2023-02-01T09:51:21;99258.88;;;7.32;64.52
41573;BME280;27286;47.870;19.006;2023-02-01T09:53:58;99273.25;;;6.83;66.61
41573;BME280;27286;47.870;19.006;2023-02-01T09:56:29;99255.28;;;6.47;68.52
41573;BME280;27286;47.870;19.006;2023-02-01T10:01:27;99245.53;;;5.93;72.27
41573;BME280;27286;47.870;19.006;2023-02-01T10:04:08;99250.00;;;5.85;73.21
41573;BME280;27286;47.870;19.006;2023-02-01T10:09:58;99250.13;;;5.45;73.43
41573;BME280;27286;47.870;19.006;2023-02-01T10:15:35;99232.19;;;5.39;74.90
41573;BME280;27286;47.870;19.006;2023-02-01T10:26:24;99237.88;;;5.87;72.36
41573;BME280;27286;47.870;19.006;2023-02-01T10:28:52;99221.38;;;5.94;71.96
41573;BME280;27286;47.870;19.006;2023-02-01T10:31:21;99217.44;;;5.80;72.21
41573;BME280;27286;47.870;19.006;2023-02-01T10:33:53;99220.97;;;5.76;72.18
41573;BME280;27286;47.870;19.006;2023-02-01T10:36:49;99212.31;;;5.78;71.96
41573;BME280;27286;47.870;19.006;2023-02-01T10:39:15;99218.75;;;6.28;70.94
41573;BME280;27286;47.870;19.006;2023-02-01T10:41:41;99208.59;;;6.21;70.63
41573;BME280;27286;47.870;19.006;2023-02-01T10:44:34;99201.59;;;6.26;69.90
41573;BME280;27286;47.870;19.006;2023-02-01T10:46:59;99198.53;;;6.12;70.48
41573;BME280;27286;47.870;19.006;2023-02-01T10:51:54;99183.13;;;6.38;69.88
41573;BME280;27286;47.870;19.006;2023-02-01T10:54:37;99181.66;;;6.29;69.40
41573;BME280;27286;47.870;19.006;2023-02-01T10:57:28;99185.03;;;6.00;70.40
41573;BME280;27286;47.870;19.006;2023-02-01T10:59:55;99172.66;;;5.79;70.94
41573;BME280;27286;47.870;19.006;2023-02-01T11:02:24;99185.28;;;5.57;71.98
41573;BME280;27286;47.870;19.006;2023-02-01T11:05:02;99170.25;;;5.37;73.33
41573;BME280;27286;47.870;19.006;2023-02-01T11:07:28;99166.09;;;5.32;73.73
41573;BME280;27286;47.870;19.006;2023-02-01T11:09:55;99160.34;;;5.22;73.90
41573;BME280;27286;47.870;19.006;2023-02-01T11:12:35;99155.28;;;5.16;74.12
41573;BME280;27286;47.870;19.006;2023-02-01T11:15:25;99142.56;;;5.10;76.96
41573;BME280;27286;47.870;19.006;2023-02-01T11:17:52;99147.03;;;5.02;77.65
41573;BME280;27286;47.870;19.006;2023-02-01T11:22:57;99131.31;;;4.75;80.74
41573;BME280;27286;47.870;19.006;2023-02-01T11:25:23;99135.13;;;4.59;80.77
41573;BME280;27286;47.870;19.006;2023-02-01T11:27:51;99139.78;;;4.42;81.82
41573;BME280;27286;47.870;19.006;2023-02-01T11:30:22;99140.22;;;4.22;84.01
41573;BME280;27286;47.870;19.006;2023-02-01T11:32:51;99136.28;;;4.03;85.69
41573;BME280;27286;47.870;19.006;2023-02-01T11:35:20;99139.16;;;3.87;89.42
41573;BME280;27286;47.870;19.006;2023-02-01T11:37:54;99141.09;;;3.76;89.59
41573;BME280;27286;47.870;19.006;2023-02-01T11:40:38;99132.81;;;3.59;90.71
41573;BME280;27286;47.870;19.006;2023-02-01T11:43:27;99132.13;;;3.49;92.18
41573;BME280;27286;47.870;19.006;2023-02-01T11:45:58;99129.66;;;3.43;93.18
41573;BME280;27286;47.870;19.006;2023-02-01T11:48:26;99130.66;;;3.35;93.82
41573;BME280;27286;47.870;19.006;2023-02-01T12:02:16;99111.19;;;3.21;96.81
41573;BME280;27286;47.870;19.006;2023-02-01T12:11:03;99104.94;;;3.36;96.55
41573;BME280;27286;47.870;19.006;2023-02-01T12:17:06;99082.63;;;3.35;98.13
41573;BME280;27286;47.870;19.006;2023-02-01T12:28:40;99066.22;;;3.42;99.58
41573;BME280;27286;47.870;19.006;2023-02-01T12:31:24;99063.75;;;3.36;100.00
41573;BME280;27286;47.870;19.006;2023-02-01T12:37:03;99051.97;;;3.23;100.00
41573;BME280;27286;47.870;19.006;2023-02-01T12:44:53;99039.81;;;3.31;100.00
41573;BME280;27286;47.870;19.006;2023-02-01T12:47:38;99042.53;;;3.23;100.00
41573;BME280;27286;47.870;19.006;2023-02-01T12:50:21;99039.88;;;3.28;100.00
41573;BME280;27286;47.870;19.006;2023-02-01T12:52:58;99034.72;;;3.28;100.00
41573;BME280;27286;47.870;19.006;2023-02-01T12:55:42;99015.84;;;3.29;100.00
41573;BME280;27286;47.870;19.006;2023-02-01T13:01:15;99015.06;;;3.69;100.00
41573;BME280;27286;47.870;19.006;2023-02-01T13:03:56;99011.50;;;3.76;100.00
41573;BME280;27286;47.870;19.006;2023-02-01T13:06:34;99005.25;;;3.86;100.00
41573;BME280;27286;47.870;19.006;2023-02-01T13:11:37;98995.34;;;4.09;100.00
41573;BME280;27286;47.870;19.006;2023-02-01T13:14:10;98997.03;;;4.10;99.56
41573;BME280;27286;47.870;19.006;2023-02-01T13:16:42;99012.63;;;4.03;100.00
41573;BME280;27286;47.870;19.006;2023-02-01T13:21:47;98999.75;;;4.04;100.00
41573;BME280;27286;47.870;19.006;2023-02-01T13:24:39;99007.69;;;4.32;96.49
41573;BME280;27286;47.870;19.006;2023-02-01T13:27:11;98994.34;;;4.52;93.83
41573;BME280;27286;47.870;19.006;2023-02-01T13:29:54;99011.97;;;4.70;91.11
41573;BME280;27286;47.870;19.006;2023-02-01T13:38:31;99022.41;;;4.27;91.69
41573;BME280;27286;47.870;19.006;2023-02-01T13:41:28;99062.06;;;4.21;93.87
41573;BME280;27286;47.870;19.006;2023-02-01T13:44:04;99095.06;;;4.04;95.26
41573;BME280;27286;47.870;19.006;2023-02-01T13:46:39;99110.28;;;3.72;94.04
41573;BME280;27286;47.870;19.006;2023-02-01T13:49:06;99102.31;;;3.38;94.95
41573;BME280;27286;47.870;19.006;2023-02-01T13:51:43;99095.13;;;3.07;95.16
41573;BME280;27286;47.870;19.006;2023-02-01T13:54:28;99111.00;;;2.78;95.79
41573;BME280;27286;47.870;19.006;2023-02-01T13:56:54;99074.34;;;2.65;96.64
41573;BME280;27286;47.870;19.006;2023-02-01T14:05:03;99056.44;;;2.61;98.99
41573;BME280;27286;47.870;19.006;2023-02-01T14:07:30;99054.72;;;2.60;99.24
41573;BME280;27286;47.870;19.006;2023-02-01T14:09:55;99052.13;;;2.61;98.79
41573;BME280;27286;47.870;19.006;2023-02-01T14:17:43;99049.94;;;2.92;97.97
41573;BME280;27286;47.870;19.006;2023-02-01T14:20:45;99046.03;;;3.21;96.92
41573;BME280;27286;47.870;19.006;2023-02-01T14:23:19;99041.06;;;3.56;94.08
41573;BME280;27286;47.870;19.006;2023-02-01T14:26:03;99049.75;;;3.49;93.51
41573;BME280;27286;47.870;19.006;2023-02-01T14:28:29;99018.34;;;3.32;94.00
41573;BME280;27286;47.870;19.006;2023-02-01T14:30:56;99040.69;;;3.30;94.60
41573;BME280;27286;47.870;19.006;2023-02-01T14:33:27;99036.38;;;3.32;93.59
41573;BME280;27286;47.870;19.006;2023-02-01T14:38:31;99040.88;;;3.21;93.81
41573;BME280;27286;47.870;19.006;2023-02-01T14:41:18;99035.78;;;3.16;93.77
41573;BME280;27286;47.870;19.006;2023-02-01T14:44:13;99040.72;;;3.28;91.89
41573;BME280;27286;47.870;19.006;2023-02-01T14:47:08;99043.44;;;3.21;92.95
41573;BME280;27286;47.870;19.006;2023-02-01T14:52:28;99056.13;;;3.30;93.09
41573;BME280;27286;47.870;19.006;2023-02-01T14:54:56;99041.53;;;3.30;94.29
41573;BME280;27286;47.870;19.006;2023-02-01T14:57:27;99041.63;;;3.26;94.99
41573;BME280;27286;47.870;19.006;2023-02-01T15:00:23;99040.03;;;3.20;96.27
41573;BME280;27286;47.870;19.006;2023-02-01T15:02:50;99040.00;;;3.22;96.29
41573;BME280;27286;47.870;19.006;2023-02-01T15:05:24;99031.56;;;3.14;95.84
41573;BME280;27286;47.870;19.006;2023-02-01T15:07:51;99030.78;;;3.09;96.32
41573;BME280;27286;47.870;19.006;2023-02-01T15:10:18;99038.56;;;3.06;95.88
41573;BME280;27286;47.870;19.006;2023-02-01T15:12:46;99045.47;;;3.04;96.45
41573;BME280;27286;47.870;19.006;2023-02-01T15:15:20;99036.06;;;3.01;96.83
41573;BME280;27286;47.870;19.006;2023-02-01T15:17:58;99022.38;;;2.99;96.09
41573;BME280;27286;47.870;19.006;2023-02-01T15:20:30;99028.44;;;2.96;96.04